aviador You're here:

SARC Decoded Metar

CORRIENTES in ARGENTINA
Report Time2017-10-17 11:00:00
UTC Time2017-10-17 11:21:35
Flight Rules vfr VFR
Wind050° at 16 kt
W.Decomp.*RWY 02: 12.3 kt HW 10.3 kt RCW
W.Rank050° ranks 3
Current wind is above 050° avg. (6.3)
Visibility9999 m
Phenomena:N/A
Clouds:N/A
Expected CloudBase > 2,400 ft AGL from Temp-Dew spread
CeilingNone
Temp26°C (ISA +11)
Dew Point20°C (70% RH)
AAT24.0°C
QNH1009 hPa
Density Alt1,965 ft
Elevation203 ft
Report Wrong Elevation
Raw Report
METAR SARC 171100Z 05016KT CAVOK 26/20 Q1009=

Extra information for SARC:More info

Metar Taf Metar & Taf Last 4 Metars F.Rules Stats Wind Profile Meteogram Temp Stats Airport Information Weather charts Add Link Nearby VenuesMetar ALERT Operation Metar Decoded Social comments